sensor_id;sensor_type;location;lat;lon;timestamp;P1;durP1;ratioP1;P2;durP2;ratioP2
74215;SDS011;62577;53.378;-2.914;2022-09-09T00:02:25;40.63;;;24.52;;
74215;SDS011;62577;53.378;-2.914;2022-09-09T00:04:59;40.35;;;23.58;;
74215;SDS011;62577;53.378;-2.914;2022-09-09T00:07:34;40.75;;;24.35;;
74215;SDS011;62577;53.378;-2.914;2022-09-09T00:15:24;38.28;;;24.38;;
74215;SDS011;62577;53.378;-2.914;2022-09-09T00:18:07;42.28;;;25.00;;
74215;SDS011;62577;53.378;-2.914;2022-09-09T00:20:52;39.13;;;23.95;;
74215;SDS011;62577;53.378;-2.914;2022-09-09T00:23:27;36.50;;;23.75;;
74215;SDS011;62577;53.378;-2.914;2022-09-09T00:26:02;38.95;;;24.17;;
74215;SDS011;62577;53.378;-2.914;2022-09-09T00:28:29;40.17;;;24.20;;
74215;SDS011;62577;53.378;-2.914;2022-09-09T00:30:59;39.90;;;24.45;;
74215;SDS011;62577;53.378;-2.914;2022-09-09T00:33:26;42.95;;;24.92;;
74215;SDS011;62577;53.378;-2.914;2022-09-09T00:35:58;43.33;;;25.20;;
74215;SDS011;62577;53.378;-2.914;2022-09-09T00:41:05;45.65;;;26.10;;
74215;SDS011;62577;53.378;-2.914;2022-09-09T00:43:35;46.60;;;25.52;;
74215;SDS011;62577;53.378;-2.914;2022-09-09T00:48:36;44.47;;;27.00;;
74215;SDS011;62577;53.378;-2.914;2022-09-09T00:51:53;43.25;;;25.60;;
74215;SDS011;62577;53.378;-2.914;2022-09-09T00:56:26;46.58;;;27.00;;
74215;SDS011;62577;53.378;-2.914;2022-09-09T01:01:20;45.65;;;26.48;;
74215;SDS011;62577;53.378;-2.914;2022-09-09T01:03:49;42.85;;;24.73;;
74215;SDS011;62577;53.378;-2.914;2022-09-09T01:12:12;41.20;;;24.00;;
74215;SDS011;62577;53.378;-2.914;2022-09-09T01:16:50;43.45;;;24.70;;
74215;SDS011;62577;53.378;-2.914;2022-09-09T01:19:45;43.53;;;25.98;;
74215;SDS011;62577;53.378;-2.914;2022-09-09T01:25:01;44.75;;;26.25;;
74215;SDS011;62577;53.378;-2.914;2022-09-09T01:27:30;42.33;;;25.90;;
74215;SDS011;62577;53.378;-2.914;2022-09-09T01:29:56;38.97;;;24.10;;
74215;SDS011;62577;53.378;-2.914;2022-09-09T01:34:51;39.53;;;22.80;;
74215;SDS011;62577;53.378;-2.914;2022-09-09T01:37:17;40.70;;;25.52;;
74215;SDS011;62577;53.378;-2.914;2022-09-09T01:39:43;40.60;;;25.58;;
74215;SDS011;62577;53.378;-2.914;2022-09-09T01:42:12;39.88;;;24.42;;
74215;SDS011;62577;53.378;-2.914;2022-09-09T01:44:39;43.75;;;26.00;;
74215;SDS011;62577;53.378;-2.914;2022-09-09T01:47:05;38.35;;;23.83;;
74215;SDS011;62577;53.378;-2.914;2022-09-09T01:49:32;40.33;;;25.45;;
74215;SDS011;62577;53.378;-2.914;2022-09-09T01:51:58;43.13;;;25.98;;
74215;SDS011;62577;53.378;-2.914;2022-09-09T01:54:26;40.90;;;23.75;;
74215;SDS011;62577;53.378;-2.914;2022-09-09T01:59:46;41.28;;;22.13;;
74215;SDS011;62577;53.378;-2.914;2022-09-09T02:04:44;38.85;;;23.48;;
74215;SDS011;62577;53.378;-2.914;2022-09-09T02:07:18;34.95;;;21.48;;
74215;SDS011;62577;53.378;-2.914;2022-09-09T02:09:47;33.97;;;21.95;;
74215;SDS011;62577;53.378;-2.914;2022-09-09T02:12:16;35.33;;;20.45;;
74215;SDS011;62577;53.378;-2.914;2022-09-09T02:14:47;37.17;;;21.52;;
74215;SDS011;62577;53.378;-2.914;2022-09-09T02:17:16;34.83;;;21.55;;
74215;SDS011;62577;53.378;-2.914;2022-09-09T02:19:49;27.52;;;19.20;;
74215;SDS011;62577;53.378;-2.914;2022-09-09T02:22:17;32.65;;;20.77;;
74215;SDS011;62577;53.378;-2.914;2022-09-09T02:24:45;33.70;;;20.77;;
74215;SDS011;62577;53.378;-2.914;2022-09-09T02:27:12;31.85;;;20.42;;
74215;SDS011;62577;53.378;-2.914;2022-09-09T02:29:40;34.88;;;21.70;;
74215;SDS011;62577;53.378;-2.914;2022-09-09T02:32:08;36.83;;;20.33;;
74215;SDS011;62577;53.378;-2.914;2022-09-09T02:34:37;33.15;;;19.95;;
74215;SDS011;62577;53.378;-2.914;2022-09-09T02:37:07;29.25;;;18.20;;
74215;SDS011;62577;53.378;-2.914;2022-09-09T02:39:33;32.00;;;19.13;;
74215;SDS011;62577;53.378;-2.914;2022-09-09T02:41:59;26.70;;;17.05;;
74215;SDS011;62577;53.378;-2.914;2022-09-09T02:44:25;26.08;;;16.38;;
74215;SDS011;62577;53.378;-2.914;2022-09-09T02:50:11;25.45;;;16.08;;
74215;SDS011;62577;53.378;-2.914;2022-09-09T02:52:14;26.67;;;16.20;;
74215;SDS011;62577;53.378;-2.914;2022-09-09T02:54:41;29.70;;;17.60;;
74215;SDS011;62577;53.378;-2.914;2022-09-09T02:59:38;28.00;;;16.10;;
74215;SDS011;62577;53.378;-2.914;2022-09-09T03:02:04;34.22;;;17.95;;
74215;SDS011;62577;53.378;-2.914;2022-09-09T03:04:30;29.90;;;17.67;;
74215;SDS011;62577;53.378;-2.914;2022-09-09T03:06:57;26.17;;;17.02;;
74215;SDS011;62577;53.378;-2.914;2022-09-09T03:09:23;28.02;;;16.58;;
74215;SDS011;62577;53.378;-2.914;2022-09-09T03:11:51;26.92;;;16.02;;
74215;SDS011;62577;53.378;-2.914;2022-09-09T03:14:17;26.27;;;16.60;;
74215;SDS011;62577;53.378;-2.914;2022-09-09T03:16:46;25.60;;;16.95;;
74215;SDS011;62577;53.378;-2.914;2022-09-09T03:19:13;28.77;;;17.75;;
74215;SDS011;62577;53.378;-2.914;2022-09-09T03:21:39;27.77;;;16.27;;
74215;SDS011;62577;53.378;-2.914;2022-09-09T03:24:05;30.10;;;16.65;;
74215;SDS011;62577;53.378;-2.914;2022-09-09T03:26:31;26.40;;;16.63;;
74215;SDS011;62577;53.378;-2.914;2022-09-09T03:28:57;29.75;;;16.42;;
74215;SDS011;62577;53.378;-2.914;2022-09-09T03:31:25;31.40;;;17.73;;
74215;SDS011;62577;53.378;-2.914;2022-09-09T03:33:51;30.98;;;18.48;;
74215;SDS011;62577;53.378;-2.914;2022-09-09T03:36:17;25.75;;;16.42;;
74215;SDS011;62577;53.378;-2.914;2022-09-09T03:38:43;28.77;;;17.30;;
74215;SDS011;62577;53.378;-2.914;2022-09-09T03:41:09;30.10;;;17.58;;
74215;SDS011;62577;53.378;-2.914;2022-09-09T03:43:35;30.65;;;18.38;;
74215;SDS011;62577;53.378;-2.914;2022-09-09T03:46:02;33.67;;;19.27;;
74215;SDS011;62577;53.378;-2.914;2022-09-09T03:48:28;30.80;;;18.10;;
74215;SDS011;62577;53.378;-2.914;2022-09-09T03:50:54;28.60;;;17.52;;
74215;SDS011;62577;53.378;-2.914;2022-09-09T03:53:23;35.30;;;19.27;;
74215;SDS011;62577;53.378;-2.914;2022-09-09T03:55:50;28.02;;;17.30;;
74215;SDS011;62577;53.378;-2.914;2022-09-09T03:58:21;34.38;;;18.33;;
74215;SDS011;62577;53.378;-2.914;2022-09-09T04:03:39;34.45;;;18.92;;
74215;SDS011;62577;53.378;-2.914;2022-09-09T04:06:06;31.38;;;18.92;;
74215;SDS011;62577;53.378;-2.914;2022-09-09T04:08:34;33.97;;;18.88;;
74215;SDS011;62577;53.378;-2.914;2022-09-09T04:11:01;36.78;;;19.05;;
74215;SDS011;62577;53.378;-2.914;2022-09-09T04:13:30;33.65;;;19.73;;
74215;SDS011;62577;53.378;-2.914;2022-09-09T04:15:57;29.30;;;18.88;;
74215;SDS011;62577;53.378;-2.914;2022-09-09T04:18:24;32.38;;;18.38;;
74215;SDS011;62577;53.378;-2.914;2022-09-09T04:20:51;33.47;;;18.65;;
74215;SDS011;62577;53.378;-2.914;2022-09-09T04:23:18;38.03;;;19.90;;
74215;SDS011;62577;53.378;-2.914;2022-09-09T04:25:49;33.03;;;18.73;;
74215;SDS011;62577;53.378;-2.914;2022-09-09T04:28:15;37.55;;;19.45;;
74215;SDS011;62577;53.378;-2.914;2022-09-09T04:30:42;35.58;;;18.52;;
74215;SDS011;62577;53.378;-2.914;2022-09-09T04:33:09;32.45;;;18.35;;
74215;SDS011;62577;53.378;-2.914;2022-09-09T04:35:35;32.90;;;19.23;;
74215;SDS011;62577;53.378;-2.914;2022-09-09T04:38:01;31.52;;;19.38;;
74215;SDS011;62577;53.378;-2.914;2022-09-09T04:40:28;34.38;;;18.42;;
74215;SDS011;62577;53.378;-2.914;2022-09-09T04:42:54;33.00;;;18.35;;
74215;SDS011;62577;53.378;-2.914;2022-09-09T04:45:20;35.15;;;18.25;;
74215;SDS011;62577;53.378;-2.914;2022-09-09T04:47:46;36.03;;;19.60;;
74215;SDS011;62577;53.378;-2.914;2022-09-09T04:50:12;39.88;;;20.85;;
74215;SDS011;62577;53.378;-2.914;2022-09-09T04:52:38;38.53;;;20.63;;
74215;SDS011;62577;53.378;-2.914;2022-09-09T04:55:06;38.50;;;21.30;;
74215;SDS011;62577;53.378;-2.914;2022-09-09T04:57:32;37.70;;;20.20;;
74215;SDS011;62577;53.378;-2.914;2022-09-09T04:59:58;37.55;;;20.83;;
74215;SDS011;62577;53.378;-2.914;2022-09-09T05:02:25;39.03;;;20.05;;
74215;SDS011;62577;53.378;-2.914;2022-09-09T05:04:51;39.88;;;19.85;;
74215;SDS011;62577;53.378;-2.914;2022-09-09T05:07:17;40.80;;;19.73;;
74215;SDS011;62577;53.378;-2.914;2022-09-09T05:09:44;45.58;;;22.83;;
74215;SDS011;62577;53.378;-2.914;2022-09-09T05:12:10;41.08;;;20.02;;
74215;SDS011;62577;53.378;-2.914;2022-09-09T05:14:36;43.03;;;20.92;;
74215;SDS011;62577;53.378;-2.914;2022-09-09T05:17:02;49.13;;;22.70;;
74215;SDS011;62577;53.378;-2.914;2022-09-09T05:19:28;46.30;;;22.92;;
74215;SDS011;62577;53.378;-2.914;2022-09-09T05:21:56;45.72;;;21.52;;
74215;SDS011;62577;53.378;-2.914;2022-09-09T05:24:22;45.08;;;21.17;;
74215;SDS011;62577;53.378;-2.914;2022-09-09T05:26:48;42.75;;;20.20;;
74215;SDS011;62577;53.378;-2.914;2022-09-09T05:29:14;40.25;;;20.90;;
74215;SDS011;62577;53.378;-2.914;2022-09-09T05:31:44;52.08;;;25.35;;
74215;SDS011;62577;53.378;-2.914;2022-09-09T05:34:10;51.38;;;25.65;;
74215;SDS011;62577;53.378;-2.914;2022-09-09T05:36:36;48.35;;;24.67;;
74215;SDS011;62577;53.378;-2.914;2022-09-09T05:39:02;42.08;;;23.65;;
74215;SDS011;62577;53.378;-2.914;2022-09-09T05:41:28;41.83;;;24.30;;
74215;SDS011;62577;53.378;-2.914;2022-09-09T05:43:55;44.55;;;24.70;;
74215;SDS011;62577;53.378;-2.914;2022-09-09T05:46:24;42.53;;;22.73;;
74215;SDS011;62577;53.378;-2.914;2022-09-09T05:48:50;39.75;;;20.98;;
74215;SDS011;62577;53.378;-2.914;2022-09-09T05:51:18;37.72;;;22.35;;
74215;SDS011;62577;53.378;-2.914;2022-09-09T05:53:45;41.55;;;22.20;;
74215;SDS011;62577;53.378;-2.914;2022-09-09T05:56:12;40.22;;;21.80;;
74215;SDS011;62577;53.378;-2.914;2022-09-09T05:58:39;37.72;;;21.00;;
74215;SDS011;62577;53.378;-2.914;2022-09-09T06:03:38;37.78;;;22.10;;
74215;SDS011;62577;53.378;-2.914;2022-09-09T06:06:06;32.42;;;19.77;;
74215;SDS011;62577;53.378;-2.914;2022-09-09T06:08:33;37.55;;;21.17;;
74215;SDS011;62577;53.378;-2.914;2022-09-09T06:11:09;34.63;;;19.83;;
74215;SDS011;62577;53.378;-2.914;2022-09-09T06:13:36;35.35;;;20.77;;
74215;SDS011;62577;53.378;-2.914;2022-09-09T06:16:05;33.90;;;20.13;;
74215;SDS011;62577;53.378;-2.914;2022-09-09T06:18:32;33.78;;;18.52;;
74215;SDS011;62577;53.378;-2.914;2022-09-09T06:20:59;30.08;;;18.50;;
74215;SDS011;62577;53.378;-2.914;2022-09-09T06:23:29;28.63;;;17.60;;
74215;SDS011;62577;53.378;-2.914;2022-09-09T06:26:05;26.13;;;18.48;;
74215;SDS011;62577;53.378;-2.914;2022-09-09T06:28:33;26.60;;;17.98;;
74215;SDS011;62577;53.378;-2.914;2022-09-09T06:30:59;28.30;;;17.15;;
74215;SDS011;62577;53.378;-2.914;2022-09-09T06:33:26;27.38;;;17.27;;
74215;SDS011;62577;53.378;-2.914;2022-09-09T06:35:53;25.92;;;17.42;;
74215;SDS011;62577;53.378;-2.914;2022-09-09T06:38:19;27.33;;;17.70;;
74215;SDS011;62577;53.378;-2.914;2022-09-09T06:40:51;26.83;;;16.00;;
74215;SDS011;62577;53.378;-2.914;2022-09-09T06:43:18;22.77;;;16.13;;
74215;SDS011;62577;53.378;-2.914;2022-09-09T06:45:52;27.10;;;16.48;;
74215;SDS011;62577;53.378;-2.914;2022-09-09T06:48:18;28.73;;;16.55;;
74215;SDS011;62577;53.378;-2.914;2022-09-09T06:50:46;23.98;;;16.23;;
74215;SDS011;62577;53.378;-2.914;2022-09-09T06:53:16;24.70;;;16.67;;
74215;SDS011;62577;53.378;-2.914;2022-09-09T06:55:45;24.08;;;16.08;;
74215;SDS011;62577;53.378;-2.914;2022-09-09T06:58:11;23.83;;;17.25;;
74215;SDS011;62577;53.378;-2.914;2022-09-09T07:00:37;23.83;;;16.02;;
74215;SDS011;62577;53.378;-2.914;2022-09-09T07:03:04;23.40;;;15.25;;
74215;SDS011;62577;53.378;-2.914;2022-09-09T07:05:31;21.20;;;14.95;;
74215;SDS011;62577;53.378;-2.914;2022-09-09T07:07:57;21.50;;;15.23;;
74215;SDS011;62577;53.378;-2.914;2022-09-09T07:10:23;18.98;;;13.43;;
74215;SDS011;62577;53.378;-2.914;2022-09-09T07:12:50;20.00;;;13.25;;
74215;SDS011;62577;53.378;-2.914;2022-09-09T07:15:17;18.98;;;13.20;;
74215;SDS011;62577;53.378;-2.914;2022-09-09T07:17:47;18.77;;;13.60;;
74215;SDS011;62577;53.378;-2.914;2022-09-09T07:20:14;20.30;;;14.38;;
74215;SDS011;62577;53.378;-2.914;2022-09-09T07:22:40;21.02;;;14.25;;
74215;SDS011;62577;53.378;-2.914;2022-09-09T07:25:06;21.35;;;14.27;;
74215;SDS011;62577;53.378;-2.914;2022-09-09T07:27:33;19.20;;;14.50;;
74215;SDS011;62577;53.378;-2.914;2022-09-09T07:29:59;23.33;;;14.48;;
74215;SDS011;62577;53.378;-2.914;2022-09-09T07:32:25;21.33;;;14.90;;
74215;SDS011;62577;53.378;-2.914;2022-09-09T07:34:51;16.88;;;12.85;;
74215;SDS011;62577;53.378;-2.914;2022-09-09T07:37:17;19.52;;;13.00;;
74215;SDS011;62577;53.378;-2.914;2022-09-09T07:39:44;20.05;;;12.70;;
74215;SDS011;62577;53.378;-2.914;2022-09-09T07:42:10;17.75;;;12.73;;
74215;SDS011;62577;53.378;-2.914;2022-09-09T07:44:36;15.05;;;11.52;;
74215;SDS011;62577;53.378;-2.914;2022-09-09T07:47:04;13.25;;;10.73;;
74215;SDS011;62577;53.378;-2.914;2022-09-09T07:49:30;12.73;;;10.60;;
74215;SDS011;62577;53.378;-2.914;2022-09-09T07:51:57;13.88;;;9.98;;
74215;SDS011;62577;53.378;-2.914;2022-09-09T07:54:24;14.98;;;10.48;;
74215;SDS011;62577;53.378;-2.914;2022-09-09T07:56:51;12.00;;;10.20;;
74215;SDS011;62577;53.378;-2.914;2022-09-09T07:59:17;11.45;;;10.30;;
74215;SDS011;62577;53.378;-2.914;2022-09-09T08:01:47;12.63;;;11.43;;
74215;SDS011;62577;53.378;-2.914;2022-09-09T08:04:14;12.00;;;10.45;;
74215;SDS011;62577;53.378;-2.914;2022-09-09T08:09:08;11.43;;;10.25;;
74215;SDS011;62577;53.378;-2.914;2022-09-09T08:11:34;10.70;;;9.70;;
74215;SDS011;62577;53.378;-2.914;2022-09-09T08:14:01;12.93;;;9.80;;
74215;SDS011;62577;53.378;-2.914;2022-09-09T08:16:34;11.07;;;9.98;;
74215;SDS011;62577;53.378;-2.914;2022-09-09T08:19:01;10.68;;;9.63;;
74215;SDS011;62577;53.378;-2.914;2022-09-09T08:21:28;10.10;;;9.05;;
74215;SDS011;62577;53.378;-2.914;2022-09-09T08:23:56;11.45;;;10.18;;
74215;SDS011;62577;53.378;-2.914;2022-09-09T08:26:30;11.75;;;9.55;;
74215;SDS011;62577;53.378;-2.914;2022-09-09T08:28:57;12.15;;;10.23;;
74215;SDS011;62577;53.378;-2.914;2022-09-09T08:31:28;11.10;;;9.18;;
74215;SDS011;62577;53.378;-2.914;2022-09-09T08:33:55;11.63;;;10.40;;
74215;SDS011;62577;53.378;-2.914;2022-09-09T08:36:23;11.20;;;9.60;;
74215;SDS011;62577;53.378;-2.914;2022-09-09T08:38:51;10.98;;;9.35;;
74215;SDS011;62577;53.378;-2.914;2022-09-09T08:44:16;10.48;;;9.40;;
74215;SDS011;62577;53.378;-2.914;2022-09-09T08:49:24;11.45;;;9.38;;
74215;SDS011;62577;53.378;-2.914;2022-09-09T08:51:53;13.60;;;10.40;;
74215;SDS011;62577;53.378;-2.914;2022-09-09T08:54:20;11.38;;;9.13;;
74215;SDS011;62577;53.378;-2.914;2022-09-09T08:56:46;13.07;;;9.38;;
74215;SDS011;62577;53.378;-2.914;2022-09-09T08:59:13;11.75;;;9.68;;
74215;SDS011;62577;53.378;-2.914;2022-09-09T09:01:42;10.45;;;8.13;;
74215;SDS011;62577;53.378;-2.914;2022-09-09T09:12:18;9.70;;;8.55;;
74215;SDS011;62577;53.378;-2.914;2022-09-09T09:14:45;9.05;;;8.23;;
74215;SDS011;62577;53.378;-2.914;2022-09-09T09:17:13;9.40;;;7.93;;
74215;SDS011;62577;53.378;-2.914;2022-09-09T09:19:40;11.13;;;9.25;;
74215;SDS011;62577;53.378;-2.914;2022-09-09T09:27:35;8.40;;;7.60;;
74215;SDS011;62577;53.378;-2.914;2022-09-09T09:30:05;7.85;;;7.13;;
74215;SDS011;62577;53.378;-2.914;2022-09-09T09:32:38;9.25;;;7.55;;
74215;SDS011;62577;53.378;-2.914;2022-09-09T09:35:06;7.47;;;6.60;;
74215;SDS011;62577;53.378;-2.914;2022-09-09T09:37:35;6.40;;;5.80;;
74215;SDS011;62577;53.378;-2.914;2022-09-09T09:40:11;8.38;;;6.25;;
74215;SDS011;62577;53.378;-2.914;2022-09-09T09:42:38;8.95;;;6.38;;
74215;SDS011;62577;53.378;-2.914;2022-09-09T09:45:14;10.43;;;7.32;;
74215;SDS011;62577;53.378;-2.914;2022-09-09T09:47:43;8.23;;;7.13;;
74215;SDS011;62577;53.378;-2.914;2022-09-09T09:50:16;15.75;;;10.60;;
74215;SDS011;62577;53.378;-2.914;2022-09-09T09:52:51;10.00;;;6.93;;
74215;SDS011;62577;53.378;-2.914;2022-09-09T09:55:18;8.27;;;7.05;;
74215;SDS011;62577;53.378;-2.914;2022-09-09T09:57:45;11.75;;;7.25;;
74215;SDS011;62577;53.378;-2.914;2022-09-09T10:02:39;7.57;;;6.18;;
74215;SDS011;62577;53.378;-2.914;2022-09-09T10:05:15;7.72;;;5.53;;
74215;SDS011;62577;53.378;-2.914;2022-09-09T10:10:35;7.65;;;4.18;;
74215;SDS011;62577;53.378;-2.914;2022-09-09T10:13:09;7.70;;;4.28;;
74215;SDS011;62577;53.378;-2.914;2022-09-09T10:16:15;6.43;;;4.07;;
74215;SDS011;62577;53.378;-2.914;2022-09-09T10:19:16;5.65;;;4.20;;
74215;SDS011;62577;53.378;-2.914;2022-09-09T10:29:10;4.63;;;2.80;;
74215;SDS011;62577;53.378;-2.914;2022-09-09T10:36:49;7.88;;;3.45;;
74215;SDS011;62577;53.378;-2.914;2022-09-09T10:44:49;5.70;;;2.92;;
74215;SDS011;62577;53.378;-2.914;2022-09-09T10:55:33;5.65;;;2.20;;
74215;SDS011;62577;53.378;-2.914;2022-09-09T10:58:02;6.95;;;2.30;;
74215;SDS011;62577;53.378;-2.914;2022-09-09T11:00:50;7.45;;;2.80;;
74215;SDS011;62577;53.378;-2.914;2022-09-09T11:03:17;5.63;;;2.63;;
74215;SDS011;62577;53.378;-2.914;2022-09-09T11:05:45;5.68;;;2.65;;
74215;SDS011;62577;53.378;-2.914;2022-09-09T11:08:17;4.47;;;2.13;;
74215;SDS011;62577;53.378;-2.914;2022-09-09T11:15:49;4.43;;;1.40;;
74215;SDS011;62577;53.378;-2.914;2022-09-09T11:18:19;2.72;;;1.10;;
74215;SDS011;62577;53.378;-2.914;2022-09-09T11:20:58;3.83;;;1.20;;
74215;SDS011;62577;53.378;-2.914;2022-09-09T11:23:27;4.57;;;1.60;;
74215;SDS011;62577;53.378;-2.914;2022-09-09T11:25:57;1.67;;;1.30;;
74215;SDS011;62577;53.378;-2.914;2022-09-09T11:37:02;3.50;;;1.50;;
74215;SDS011;62577;53.378;-2.914;2022-09-09T11:44:41;3.05;;;1.42;;
74215;SDS011;62577;53.378;-2.914;2022-09-09T11:52:42;2.38;;;0.93;;
74215;SDS011;62577;53.378;-2.914;2022-09-09T11:55:34;3.10;;;0.90;;
74215;SDS011;62577;53.378;-2.914;2022-09-09T11:58:02;2.70;;;0.70;;
74215;SDS011;62577;53.378;-2.914;2022-09-09T12:02:58;2.63;;;0.60;;
74215;SDS011;62577;53.378;-2.914;2022-09-09T12:05:24;1.88;;;0.68;;
74215;SDS011;62577;53.378;-2.914;2022-09-09T12:08:01;3.67;;;0.80;;
74215;SDS011;62577;53.378;-2.914;2022-09-09T12:10:29;2.22;;;0.80;;
74215;SDS011;62577;53.378;-2.914;2022-09-09T12:15:55;3.28;;;0.90;;
74215;SDS011;62577;53.378;-2.914;2022-09-09T12:20:52;2.47;;;0.90;;
74215;SDS011;62577;53.378;-2.914;2022-09-09T12:31:33;1.25;;;0.93;;
74215;SDS011;62577;53.378;-2.914;2022-09-09T12:34:11;3.08;;;1.02;;
74215;SDS011;62577;53.378;-2.914;2022-09-09T12:36:39;2.72;;;1.08;;
74215;SDS011;62577;53.378;-2.914;2022-09-09T12:41:33;2.65;;;0.80;;
74215;SDS011;62577;53.378;-2.914;2022-09-09T12:44:06;1.50;;;1.02;;
74215;SDS011;62577;53.378;-2.914;2022-09-09T12:46:34;3.00;;;1.55;;
74215;SDS011;62577;53.378;-2.914;2022-09-09T12:49:02;3.20;;;1.10;;
74215;SDS011;62577;53.378;-2.914;2022-09-09T12:51:29;1.83;;;0.90;;
74215;SDS011;62577;53.378;-2.914;2022-09-09T12:53:56;4.63;;;1.10;;
74215;SDS011;62577;53.378;-2.914;2022-09-09T12:56:23;3.05;;;0.77;;
74215;SDS011;62577;53.378;-2.914;2022-09-09T12:58:54;3.05;;;1.40;;
74215;SDS011;62577;53.378;-2.914;2022-09-09T13:01:25;2.33;;;1.17;;
74215;SDS011;62577;53.378;-2.914;2022-09-09T13:03:52;3.20;;;1.27;;
74215;SDS011;62577;53.378;-2.914;2022-09-09T13:06:19;2.70;;;1.20;;
74215;SDS011;62577;53.378;-2.914;2022-09-09T13:08:47;2.25;;;1.00;;
74215;SDS011;62577;53.378;-2.914;2022-09-09T13:11:15;2.83;;;1.35;;
74215;SDS011;62577;53.378;-2.914;2022-09-09T13:13:41;3.55;;;1.42;;
74215;SDS011;62577;53.378;-2.914;2022-09-09T13:16:27;3.70;;;1.38;;
74215;SDS011;62577;53.378;-2.914;2022-09-09T13:18:57;4.00;;;1.58;;
74215;SDS011;62577;53.378;-2.914;2022-09-09T13:21:34;2.70;;;1.30;;
74215;SDS011;62577;53.378;-2.914;2022-09-09T13:24:00;2.92;;;1.40;;
74215;SDS011;62577;53.378;-2.914;2022-09-09T13:26:33;4.38;;;1.52;;
74215;SDS011;62577;53.378;-2.914;2022-09-09T13:29:18;2.63;;;1.38;;
74215;SDS011;62577;53.378;-2.914;2022-09-09T13:31:44;2.97;;;1.45;;
74215;SDS011;62577;53.378;-2.914;2022-09-09T13:34:22;6.05;;;1.40;;
74215;SDS011;62577;53.378;-2.914;2022-09-09T13:36:52;3.30;;;1.20;;
74215;SDS011;62577;53.378;-2.914;2022-09-09T13:39:19;3.80;;;1.50;;
74215;SDS011;62577;53.378;-2.914;2022-09-09T13:41:45;2.25;;;1.30;;
74215;SDS011;62577;53.378;-2.914;2022-09-09T13:44:27;4.20;;;1.40;;
74215;SDS011;62577;53.378;-2.914;2022-09-09T13:47:01;3.58;;;1.58;;
74215;SDS011;62577;53.378;-2.914;2022-09-09T13:49:28;3.65;;;1.10;;
74215;SDS011;62577;53.378;-2.914;2022-09-09T13:52:05;2.92;;;1.20;;
74215;SDS011;62577;53.378;-2.914;2022-09-09T13:54:32;2.25;;;1.10;;
74215;SDS011;62577;53.378;-2.914;2022-09-09T13:56:58;3.28;;;1.10;;
74215;SDS011;62577;53.378;-2.914;2022-09-09T13:59:26;3.60;;;1.30;;
74215;SDS011;62577;53.378;-2.914;2022-09-09T14:01:52;2.30;;;1.27;;
74215;SDS011;62577;53.378;-2.914;2022-09-09T14:04:18;2.38;;;1.30;;
74215;SDS011;62577;53.378;-2.914;2022-09-09T14:06:48;4.53;;;1.38;;
74215;SDS011;62577;53.378;-2.914;2022-09-09T14:09:15;3.90;;;1.80;;
74215;SDS011;62577;53.378;-2.914;2022-09-09T14:11:42;4.95;;;1.30;;
74215;SDS011;62577;53.378;-2.914;2022-09-09T14:14:08;2.78;;;1.70;;
74215;SDS011;62577;53.378;-2.914;2022-09-09T14:16:34;5.47;;;1.58;;
74215;SDS011;62577;53.378;-2.914;2022-09-09T14:19:01;2.30;;;1.08;;
74215;SDS011;62577;53.378;-2.914;2022-09-09T14:21:27;4.70;;;1.08;;
74215;SDS011;62577;53.378;-2.914;2022-09-09T14:23:53;1.58;;;0.90;;
74215;SDS011;62577;53.378;-2.914;2022-09-09T14:26:20;3.03;;;1.13;;
74215;SDS011;62577;53.378;-2.914;2022-09-09T14:28:47;6.15;;;1.33;;
74215;SDS011;62577;53.378;-2.914;2022-09-09T14:31:13;3.20;;;1.38;;
74215;SDS011;62577;53.378;-2.914;2022-09-09T14:33:39;2.83;;;0.93;;
74215;SDS011;62577;53.378;-2.914;2022-09-09T14:36:06;2.50;;;1.25;;
74215;SDS011;62577;53.378;-2.914;2022-09-09T14:38:32;5.72;;;1.67;;
74215;SDS011;62577;53.378;-2.914;2022-09-09T14:40:59;2.78;;;1.35;;
74215;SDS011;62577;53.378;-2.914;2022-09-09T14:43:28;3.55;;;1.20;;
74215;SDS011;62577;53.378;-2.914;2022-09-09T14:45:55;2.80;;;1.10;;
74215;SDS011;62577;53.378;-2.914;2022-09-09T14:48:21;3.42;;;1.27;;
74215;SDS011;62577;53.378;-2.914;2022-09-09T14:50:47;3.53;;;1.20;;
74215;SDS011;62577;53.378;-2.914;2022-09-09T14:53:14;3.38;;;1.00;;
74215;SDS011;62577;53.378;-2.914;2022-09-09T14:55:42;2.65;;;1.17;;
74215;SDS011;62577;53.378;-2.914;2022-09-09T14:58:08;3.80;;;1.40;;
74215;SDS011;62577;53.378;-2.914;2022-09-09T15:00:34;2.97;;;1.40;;
74215;SDS011;62577;53.378;-2.914;2022-09-09T15:03:00;2.80;;;1.27;;
74215;SDS011;62577;53.378;-2.914;2022-09-09T15:05:26;2.38;;;1.55;;
74215;SDS011;62577;53.378;-2.914;2022-09-09T15:07:53;3.47;;;1.50;;
74215;SDS011;62577;53.378;-2.914;2022-09-09T15:10:19;3.50;;;1.20;;
74215;SDS011;62577;53.378;-2.914;2022-09-09T15:12:46;2.67;;;1.10;;
74215;SDS011;62577;53.378;-2.914;2022-09-09T15:15:12;2.65;;;1.08;;
74215;SDS011;62577;53.378;-2.914;2022-09-09T15:17:38;3.45;;;1.33;;
74215;SDS011;62577;53.378;-2.914;2022-09-09T15:20:04;4.28;;;1.30;;
74215;SDS011;62577;53.378;-2.914;2022-09-09T15:22:33;4.90;;;1.38;;
74215;SDS011;62577;53.378;-2.914;2022-09-09T15:25:01;3.08;;;1.27;;
74215;SDS011;62577;53.378;-2.914;2022-09-09T15:27:27;3.80;;;1.42;;
74215;SDS011;62577;53.378;-2.914;2022-09-09T15:29:56;1.58;;;1.20;;
74215;SDS011;62577;53.378;-2.914;2022-09-09T15:32:23;4.05;;;1.27;;
74215;SDS011;62577;53.378;-2.914;2022-09-09T15:34:49;1.58;;;0.95;;
74215;SDS011;62577;53.378;-2.914;2022-09-09T15:37:16;2.72;;;1.10;;
74215;SDS011;62577;53.378;-2.914;2022-09-09T15:39:42;3.28;;;1.02;;
74215;SDS011;62577;53.378;-2.914;2022-09-09T15:42:08;2.38;;;1.15;;
74215;SDS011;62577;53.378;-2.914;2022-09-09T15:44:38;2.58;;;1.13;;
74215;SDS011;62577;53.378;-2.914;2022-09-09T15:47:04;3.50;;;1.00;;
74215;SDS011;62577;53.378;-2.914;2022-09-09T15:49:30;1.75;;;0.70;;
74215;SDS011;62577;53.378;-2.914;2022-09-09T15:51:57;2.63;;;0.95;;
74215;SDS011;62577;53.378;-2.914;2022-09-09T15:54:27;3.78;;;0.95;;
74215;SDS011;62577;53.378;-2.914;2022-09-09T15:56:57;2.55;;;0.90;;
74215;SDS011;62577;53.378;-2.914;2022-09-09T15:59:24;3.15;;;0.90;;
74215;SDS011;62577;53.378;-2.914;2022-09-09T16:01:51;3.47;;;0.82;;
74215;SDS011;62577;53.378;-2.914;2022-09-09T16:04:17;5.88;;;0.75;;
74215;SDS011;62577;53.378;-2.914;2022-09-09T16:06:48;2.15;;;0.77;;
74215;SDS011;62577;53.378;-2.914;2022-09-09T16:09:15;5.28;;;0.80;;
74215;SDS011;62577;53.378;-2.914;2022-09-09T16:11:41;3.33;;;0.70;;
74215;SDS011;62577;53.378;-2.914;2022-09-09T16:14:07;1.77;;;0.55;;
74215;SDS011;62577;53.378;-2.914;2022-09-09T16:16:34;4.18;;;0.70;;
74215;SDS011;62577;53.378;-2.914;2022-09-09T16:19:02;1.63;;;0.77;;
74215;SDS011;62577;53.378;-2.914;2022-09-09T16:21:29;4.20;;;0.60;;
74215;SDS011;62577;53.378;-2.914;2022-09-09T16:23:57;4.75;;;0.75;;
74215;SDS011;62577;53.378;-2.914;2022-09-09T16:26:24;3.47;;;0.50;;
74215;SDS011;62577;53.378;-2.914;2022-09-09T16:28:50;3.33;;;0.80;;
74215;SDS011;62577;53.378;-2.914;2022-09-09T16:31:19;2.45;;;0.50;;
74215;SDS011;62577;53.378;-2.914;2022-09-09T16:33:46;2.20;;;0.40;;
74215;SDS011;62577;53.378;-2.914;2022-09-09T16:36:13;1.10;;;0.45;;
74215;SDS011;62577;53.378;-2.914;2022-09-09T16:38:40;0.85;;;0.20;;
74215;SDS011;62577;53.378;-2.914;2022-09-09T16:41:06;0.38;;;0.20;;
74215;SDS011;62577;53.378;-2.914;2022-09-09T16:43:33;1.23;;;0.38;;
74215;SDS011;62577;53.378;-2.914;2022-09-09T16:46:00;0.15;;;0.13;;
74215;SDS011;62577;53.378;-2.914;2022-09-09T16:48:30;0.45;;;0.10;;
74215;SDS011;62577;53.378;-2.914;2022-09-09T16:51:01;1.33;;;0.30;;